Terminal Aerodrome Forecast
Issued by NWS

Home | Current Version | Previous Version | Graphics & Text | Print | Product List | Glossary On
Versions: 1 2 3 4 5 6 7 8 9 10 11 12 13 14 15 16 17
505
FTUS43 KICT 251131
TAFSLN
TAF
KSLN 251131Z 2512/2612 16010KT P6SM SCT130
     FM251600 17018G26KT P6SM SCT200
     FM260000 13010KT P6SM BKN200
     FM260500 08009KT P6SM SCT015 BKN100
     FM260900 02009KT P6SM VCTS BKN012 OVC050CB=

USA.gov is the U.S. government's official web portal to all federal, state and local government web resources and services.